Ardooie, Belgium
Current Conditions -  °F | °C
As of 11:20 AM on Sunday 26 Oct 2014 (Local Time) from EBOS Reporting Station
Scattered Clouds Scattered Clouds  
Wind Chill: 55°   Ceiling: Unl
Heat Index: 55°   Visibility: 6mi
Dew Point: 48°   Wind: 10mph
Humidity: 77%   Direction: 210°SSW
Pressure: 30.24"   Gusts: NA
Location:  50.98°N, 3.2°E
Report Text: EBOS 260920Z 21009KT 9999 SCT038 13/09 Q1024 NOSIG
Loading
Personal Weather Stations






























Interactive Weather Map
Tropical Storm Tracking
New forecast layout! Learn more

10-Day Weather Forecast

Advertisements
Track Severe Weather on mobile